createdAt,value
2023-02-03T00:00:43.900Z,15.35
2023-02-03T00:03:16.541Z,13.68
2023-02-03T00:05:47.353Z,15.38
2023-02-03T00:11:19.048Z,14.50
2023-02-03T00:13:54.609Z,14.27
2023-02-03T00:16:35.930Z,13.85
2023-02-03T00:19:30.772Z,13.82
2023-02-03T00:22:00.334Z,12.77
2023-02-03T00:24:39.921Z,12.43
2023-02-03T00:29:42.833Z,12.57
2023-02-03T00:32:10.504Z,12.15
2023-02-03T00:34:43.336Z,12.10
2023-02-03T00:37:16.158Z,11.73
2023-02-03T00:39:50.258Z,12.10
2023-02-03T00:42:26.335Z,13.10
2023-02-03T00:47:40.023Z,12.57
2023-02-03T00:50:11.727Z,12.05
2023-02-03T00:52:40.804Z,11.73
2023-02-03T00:55:14.797Z,12.15
2023-02-03T00:57:54.894Z,12.38
2023-02-03T01:03:19.720Z,12.18
2023-02-03T01:06:14.056Z,11.48
2023-02-03T01:08:54.145Z,12.10
2023-02-03T01:11:40.935Z,11.48
2023-02-03T01:16:59.462Z,11.18
2023-02-03T01:22:20.543Z,11.32
2023-02-03T01:24:54.175Z,12.23
2023-02-03T01:27:44.565Z,12.75
2023-02-03T01:30:16.723Z,12.52
2023-02-03T01:32:47.074Z,12.02
2023-02-03T01:35:15.001Z,11.45
2023-02-03T01:37:45.844Z,11.93
2023-02-03T01:40:13.742Z,12.00
2023-02-03T01:42:47.312Z,12.88
2023-02-03T01:47:55.863Z,12.20
2023-02-03T01:50:41.455Z,13.27
2023-02-03T01:53:15.301Z,14.00
2023-02-03T01:55:50.382Z,12.35
2023-02-03T01:58:45.546Z,11.68
2023-02-03T02:01:18.530Z,12.05
2023-02-03T02:03:56.701Z,12.00
2023-02-03T02:06:24.274Z,12.07
2023-02-03T02:08:59.610Z,11.60
2023-02-03T02:11:39.220Z,12.23
2023-02-03T02:14:10.598Z,10.82
2023-02-03T02:17:01.665Z,10.73
2023-02-03T02:19:54.360Z,10.93
2023-02-03T02:23:00.109Z,11.20
2023-02-03T02:25:49.460Z,11.18
2023-02-03T02:28:35.197Z,12.48
2023-02-03T02:31:29.396Z,13.35
2023-02-03T02:35:10.859Z,11.95
2023-02-03T02:37:59.128Z,13.23
2023-02-03T02:41:05.659Z,13.45
2023-02-03T02:43:52.392Z,13.20
2023-02-03T02:46:40.945Z,13.50
2023-02-03T02:49:17.092Z,13.57
2023-02-03T02:51:55.110Z,13.13
2023-02-03T02:54:29.444Z,13.05
2023-02-03T02:57:03.588Z,12.45
2023-02-03T02:59:39.157Z,13.32
2023-02-03T03:02:14.984Z,12.63
2023-02-03T03:07:59.308Z,12.52
2023-02-03T03:10:34.849Z,12.20
2023-02-03T03:13:06.766Z,13.23
2023-02-03T03:15:41.642Z,12.95
2023-02-03T03:18:30.155Z,11.48
2023-02-03T03:23:57.158Z,12.20
2023-02-03T03:26:38.276Z,11.45
2023-02-03T03:29:35.359Z,11.48
2023-02-03T03:32:39.936Z,11.35
2023-02-03T03:35:13.621Z,11.20
2023-02-03T03:38:09.747Z,11.90
2023-02-03T03:40:44.998Z,11.30
2023-02-03T03:46:16.359Z,10.68
2023-02-03T03:49:14.649Z,10.30
2023-02-03T03:52:04.529Z,10.90
2023-02-03T03:54:40.629Z,9.82
2023-02-03T03:57:31.154Z,8.73
2023-02-03T04:00:07.655Z,10.68
2023-02-03T04:02:44.464Z,9.48
2023-02-03T04:05:17.511Z,11.20
2023-02-03T04:07:48.621Z,9.90
2023-02-03T04:10:32.407Z,9.68
2023-02-03T04:13:02.356Z,8.95
2023-02-03T04:15:35.611Z,9.25
2023-02-03T04:18:06.507Z,9.13
2023-02-03T04:20:42.694Z,9.10
2023-02-03T04:23:26.430Z,9.25
2023-02-03T04:25:59.692Z,9.00
2023-02-03T04:31:11.824Z,9.00
2023-02-03T04:33:44.567Z,9.68
2023-02-03T04:36:18.571Z,8.37
2023-02-03T04:38:49.220Z,9.63
2023-02-03T04:41:23.527Z,9.27
2023-02-03T04:44:18.118Z,8.57
2023-02-03T04:46:50.343Z,10.00
2023-02-03T04:49:20.608Z,10.00
2023-02-03T04:51:53.134Z,8.93
2023-02-03T04:54:30.310Z,10.63
2023-02-03T04:57:00.746Z,10.02
2023-02-03T04:59:32.517Z,9.55
2023-02-03T05:02:05.834Z,10.63
2023-02-03T05:07:22.580Z,9.88
2023-02-03T05:09:49.898Z,11.00
2023-02-03T05:12:24.786Z,10.68
2023-02-03T05:15:07.776Z,10.95
2023-02-03T05:17:40.209Z,12.20
2023-02-03T05:20:13.189Z,11.45
2023-02-03T05:22:46.161Z,12.32
2023-02-03T05:25:30.243Z,11.52
2023-02-03T05:27:57.677Z,12.98
2023-02-03T05:30:29.800Z,11.70
2023-02-03T05:33:04.450Z,12.02
2023-02-03T05:35:46.764Z,13.18
2023-02-03T05:38:14.153Z,11.55
2023-02-03T05:41:08.893Z,12.88
2023-02-03T05:43:36.888Z,13.23
2023-02-03T05:46:08.020Z,15.02
2023-02-03T05:48:36.058Z,14.02
2023-02-03T05:51:11.600Z,13.60
2023-02-03T05:53:39.284Z,14.23
2023-02-03T05:56:08.838Z,15.68
2023-02-03T05:58:42.170Z,13.25
2023-02-03T06:01:09.708Z,12.85
2023-02-03T06:03:41.017Z,13.27
2023-02-03T06:06:20.461Z,12.68
2023-02-03T06:08:47.787Z,12.48
2023-02-03T06:11:24.140Z,13.10
2023-02-03T06:13:58.866Z,12.35
2023-02-03T06:16:34.325Z,13.48
2023-02-03T06:19:08.135Z,12.27
2023-02-03T06:21:46.751Z,13.40
2023-02-03T06:24:40.801Z,12.43
2023-02-03T06:27:11.473Z,14.48
2023-02-03T06:29:42.416Z,13.45
2023-02-03T06:32:16.183Z,12.88
2023-02-03T06:34:43.649Z,13.57
2023-02-03T06:37:17.565Z,12.98
2023-02-03T06:40:04.984Z,13.15
2023-02-03T06:42:40.764Z,12.70
2023-02-03T06:45:21.511Z,13.95
2023-02-03T06:48:33.656Z,11.45
2023-02-03T06:51:31.117Z,13.23
2023-02-03T06:54:54.716Z,14.35
2023-02-03T07:00:47.430Z,13.48
2023-02-03T07:09:42.200Z,13.00
2023-02-03T07:12:13.632Z,14.05
2023-02-03T07:14:46.363Z,12.40
2023-02-03T07:17:26.113Z,13.45
2023-02-03T07:20:19.743Z,13.52
2023-02-03T07:23:21.164Z,13.23
2023-02-03T07:26:26.915Z,13.35
2023-02-03T07:29:24.908Z,14.43
2023-02-03T07:32:27.950Z,12.48
2023-02-03T07:35:26.111Z,14.73
2023-02-03T07:38:21.847Z,13.65
2023-02-03T07:41:17.644Z,14.15
2023-02-03T07:44:24.409Z,14.55
2023-02-03T07:47:15.393Z,15.13
2023-02-03T07:49:55.838Z,14.95
2023-02-03T07:55:43.951Z,14.95
2023-02-03T07:58:48.230Z,14.70
2023-02-03T08:01:44.180Z,15.57
2023-02-03T08:04:24.373Z,15.90
2023-02-03T08:07:22.917Z,17.52
2023-02-03T08:10:18.374Z,17.85
2023-02-03T08:13:08.437Z,16.42
2023-02-03T08:15:54.229Z,17.65
2023-02-03T08:19:00.893Z,16.67
2023-02-03T08:21:57.889Z,17.40
2023-02-03T08:25:13.196Z,16.75
2023-02-03T08:28:04.893Z,18.02
2023-02-03T08:31:01.117Z,17.17
2023-02-03T08:33:57.244Z,17.80
2023-02-03T08:39:28.024Z,16.88
2023-02-03T08:42:24.697Z,18.02
2023-02-03T08:45:15.322Z,17.25
2023-02-03T08:47:57.531Z,16.88
2023-02-03T08:50:49.860Z,18.80
2023-02-03T08:53:56.234Z,17.77
2023-02-03T08:56:49.391Z,18.13
2023-02-03T08:59:44.152Z,17.05
2023-02-03T09:02:49.374Z,18.48
2023-02-03T09:05:38.113Z,18.20
2023-02-03T09:08:45.586Z,19.10
2023-02-03T09:11:31.506Z,19.02
2023-02-03T09:14:50.393Z,17.75
2023-02-03T09:17:54.242Z,17.52
2023-02-03T09:20:57.421Z,18.40
2023-02-03T09:24:11.306Z,17.73
2023-02-03T09:26:48.302Z,18.50
2023-02-03T09:29:43.937Z,17.00
2023-02-03T09:35:31.728Z,18.50
2023-02-03T09:38:04.457Z,19.55
2023-02-03T09:41:11.609Z,17.08
2023-02-03T09:47:45.748Z,16.63
2023-02-03T09:50:39.482Z,19.10
2023-02-03T09:53:34.043Z,17.88
2023-02-03T09:56:55.355Z,18.35
2023-02-03T10:00:01.883Z,19.50
2023-02-03T10:03:10.036Z,17.02
2023-02-03T10:06:24.031Z,19.42
2023-02-03T10:13:05.457Z,17.92
2023-02-03T10:16:26.261Z,20.10
2023-02-03T10:19:29.920Z,17.42
2023-02-03T10:22:27.809Z,18.70
2023-02-03T10:25:52.611Z,17.70
2023-02-03T10:28:59.056Z,18.52
2023-02-03T10:35:06.356Z,18.60
2023-02-03T10:38:00.131Z,17.15
2023-02-03T10:41:11.765Z,22.17
2023-02-03T10:44:08.972Z,18.55
2023-02-03T10:47:46.007Z,16.38
2023-02-03T10:50:32.765Z,18.17
2023-02-03T10:56:38.177Z,16.00
2023-02-03T10:59:44.763Z,15.82
2023-02-03T11:02:46.829Z,14.88
2023-02-03T11:09:04.986Z,17.40
2023-02-03T11:11:50.601Z,18.20
2023-02-03T11:14:50.408Z,18.00
2023-02-03T11:20:54.056Z,17.48
2023-02-03T11:23:29.016Z,18.05
2023-02-03T11:25:59.081Z,18.38
2023-02-03T11:28:42.645Z,17.27
2023-02-03T11:31:29.391Z,19.83
2023-02-03T11:34:22.460Z,17.10
2023-02-03T11:37:09.134Z,17.40
2023-02-03T11:40:23.545Z,17.65
2023-02-03T11:46:15.227Z,16.02
2023-02-03T11:49:15.183Z,16.92
2023-02-03T11:52:37.702Z,15.27
2023-02-03T11:55:46.732Z,14.73
2023-02-03T11:58:33.348Z,13.20
2023-02-03T12:01:18.214Z,12.02
2023-02-03T12:04:29.998Z,13.65
2023-02-03T12:07:17.718Z,11.82
2023-02-03T12:10:18.700Z,13.23
2023-02-03T12:17:13.536Z,13.70
2023-02-03T12:20:19.941Z,11.35
2023-02-03T12:23:55.989Z,12.07
2023-02-03T12:27:00.379Z,12.38
2023-02-03T12:33:19.872Z,12.77
2023-02-03T12:35:58.359Z,12.23
2023-02-03T12:38:52.513Z,11.07
2023-02-03T12:41:43.421Z,11.38
2023-02-03T12:45:09.164Z,13.00
2023-02-03T12:48:24.284Z,13.25
2023-02-03T12:51:21.682Z,11.70
2023-02-03T12:54:07.692Z,12.30
2023-02-03T12:57:18.563Z,10.43
2023-02-03T13:00:19.903Z,10.77
2023-02-03T13:07:12.539Z,11.30
2023-02-03T13:14:35.618Z,13.27
2023-02-03T13:17:42.070Z,12.18
2023-02-03T13:21:00.171Z,13.65
2023-02-03T13:23:56.436Z,14.07
2023-02-03T13:27:05.416Z,12.20
2023-02-03T13:30:06.962Z,12.27
2023-02-03T13:33:32.263Z,12.45
2023-02-03T13:36:24.532Z,12.00
2023-02-03T13:39:19.638Z,11.80
2023-02-03T13:42:29.036Z,12.63
2023-02-03T13:45:33.452Z,11.60
2023-02-03T13:48:24.439Z,12.38
2023-02-03T13:51:22.702Z,10.93
2023-02-03T13:54:17.383Z,11.98
2023-02-03T13:56:56.567Z,12.93
2023-02-03T14:00:02.722Z,11.57
2023-02-03T14:03:03.757Z,11.60
2023-02-03T14:09:39.257Z,10.98
2023-02-03T14:12:46.408Z,9.55
2023-02-03T14:16:04.538Z,9.18
2023-02-03T14:18:58.669Z,9.02
2023-02-03T14:25:15.462Z,8.93
2023-02-03T14:28:26.084Z,9.05
2023-02-03T14:31:20.505Z,9.65
2023-02-03T14:37:25.731Z,9.88
2023-02-03T14:40:12.661Z,8.98
2023-02-03T14:43:10.432Z,8.70
2023-02-03T14:46:00.251Z,9.90
2023-02-03T14:49:09.519Z,8.75
2023-02-03T14:52:10.559Z,9.52
2023-02-03T14:55:31.835Z,9.18
2023-02-03T14:58:07.645Z,9.57
2023-02-03T15:00:58.588Z,10.15
2023-02-03T15:03:37.850Z,9.27
2023-02-03T15:06:09.703Z,9.55
2023-02-03T15:08:53.524Z,9.82
2023-02-03T15:11:51.434Z,10.15
2023-02-03T15:18:45.089Z,10.32
2023-02-03T15:24:40.210Z,10.13
2023-02-03T15:27:45.867Z,10.48
2023-02-03T15:31:19.258Z,9.70
2023-02-03T15:34:45.518Z,9.73
2023-02-03T15:40:09.911Z,9.75
2023-02-03T15:43:28.151Z,10.52
2023-02-03T15:46:04.710Z,10.63
2023-02-03T15:49:24.606Z,10.85
2023-02-03T15:52:34.125Z,10.68
2023-02-03T15:55:38.184Z,10.57
2023-02-03T15:58:28.728Z,10.88
2023-02-03T16:01:08.516Z,10.40
2023-02-03T16:03:56.555Z,9.55
2023-02-03T16:10:09.848Z,10.70
2023-02-03T16:12:43.516Z,10.55
2023-02-03T16:15:28.190Z,10.73
2023-02-03T16:18:10.963Z,10.13
2023-02-03T16:21:00.738Z,11.52
2023-02-03T16:23:37.118Z,11.65
2023-02-03T16:26:41.237Z,10.57
2023-02-03T16:29:45.125Z,10.68
2023-02-03T16:33:11.419Z,10.18
2023-02-03T16:36:16.750Z,10.93
2023-02-03T16:39:34.725Z,10.88
2023-02-03T16:42:37.493Z,10.13
2023-02-03T16:45:44.972Z,9.90
2023-02-03T16:48:54.394Z,10.20
2023-02-03T16:52:03.628Z,10.18
2023-02-03T16:54:42.160Z,10.00
2023-02-03T16:57:34.993Z,10.68
2023-02-03T17:00:16.097Z,10.38
2023-02-03T17:02:47.622Z,10.48
2023-02-03T17:05:21.758Z,10.27
2023-02-03T17:11:23.809Z,10.95
2023-02-03T17:14:07.309Z,11.10
2023-02-03T17:16:34.786Z,10.43
2023-02-03T17:19:29.620Z,10.00
2023-02-03T17:22:13.210Z,9.43
2023-02-03T17:24:45.728Z,9.20
2023-02-03T17:27:18.844Z,8.98
2023-02-03T17:33:27.746Z,8.90
2023-02-03T17:56:29.311Z,8.82
2023-02-03T17:59:24.127Z,7.85
2023-02-03T18:01:59.689Z,7.85
2023-02-03T18:04:45.389Z,6.70
2023-02-03T18:07:31.147Z,6.78
2023-02-03T18:10:06.112Z,6.15
2023-02-03T18:12:39.755Z,5.95
2023-02-03T18:20:51.788Z,6.68
2023-02-03T18:23:22.988Z,7.10
2023-02-03T18:25:56.010Z,6.55
2023-02-03T18:28:31.691Z,8.30
2023-02-03T18:31:24.152Z,7.93
2023-02-03T18:34:13.059Z,9.95
2023-02-03T18:36:55.011Z,8.50
2023-02-03T18:39:32.286Z,8.52
2023-02-03T18:42:03.509Z,9.10
2023-02-03T18:44:35.213Z,9.40
2023-02-03T18:47:15.288Z,8.98
2023-02-03T18:52:46.658Z,9.23
2023-02-03T18:55:19.703Z,8.85
2023-02-03T18:57:55.831Z,10.88
2023-02-03T19:00:36.834Z,11.05
2023-02-03T19:03:04.675Z,10.90
2023-02-03T19:11:46.652Z,11.07
2023-02-03T19:14:38.747Z,12.35
2023-02-03T19:17:33.248Z,11.30
2023-02-03T19:20:13.882Z,12.55
2023-02-03T19:22:50.852Z,13.45
2023-02-03T19:25:36.820Z,12.55
2023-02-03T19:28:40.561Z,14.20
2023-02-03T19:31:23.679Z,15.05
2023-02-03T19:34:07.422Z,15.43
2023-02-03T19:36:53.009Z,16.13
2023-02-03T19:42:25.222Z,15.55
2023-02-03T19:45:24.156Z,14.63
2023-02-03T19:48:04.454Z,15.80
2023-02-03T19:50:46.693Z,15.70
2023-02-03T19:53:44.091Z,15.10
2023-02-03T19:56:35.866Z,15.65
2023-02-03T19:59:21.984Z,15.82
2023-02-03T20:02:27.116Z,15.00
2023-02-03T20:05:00.807Z,14.43
2023-02-03T20:07:48.553Z,15.23
2023-02-03T20:10:31.072Z,14.40
2023-02-03T20:16:20.107Z,15.55
2023-02-03T20:19:12.272Z,16.20
2023-02-03T20:21:54.547Z,14.57
2023-02-03T20:24:40.153Z,16.30
2023-02-03T20:27:32.464Z,17.98
2023-02-03T20:30:23.456Z,15.63
2023-02-03T20:33:11.659Z,17.42
2023-02-03T20:35:45.316Z,16.48
2023-02-03T20:38:27.483Z,17.02
2023-02-03T20:41:15.044Z,17.77
2023-02-03T20:44:00.413Z,16.35
2023-02-03T20:46:42.289Z,16.27
2023-02-03T20:49:32.477Z,17.40
2023-02-03T20:52:12.078Z,16.40
2023-02-03T20:55:13.022Z,16.77
2023-02-03T20:58:00.673Z,17.70
2023-02-03T21:01:05.989Z,17.98
2023-02-03T21:04:03.242Z,18.02
2023-02-03T21:06:34.648Z,20.67
2023-02-03T21:09:37.900Z,22.73
2023-02-03T21:12:17.141Z,24.17
2023-02-03T21:14:53.300Z,21.98
2023-02-03T21:17:34.482Z,22.42
2023-02-03T21:20:16.757Z,19.98
2023-02-03T21:23:14.551Z,19.77
2023-02-03T21:25:51.748Z,18.50
2023-02-03T21:28:29.450Z,19.90
2023-02-03T21:31:05.296Z,17.77
2023-02-03T21:33:54.655Z,16.33
2023-02-03T21:37:05.835Z,16.13
2023-02-03T21:39:48.989Z,14.15
2023-02-03T21:42:42.481Z,15.95
2023-02-03T21:45:20.154Z,14.52
2023-02-03T21:47:55.211Z,13.85
2023-02-03T21:50:35.292Z,15.73
2023-02-03T21:53:35.183Z,15.50
2023-02-03T21:56:43.408Z,14.05
2023-02-03T21:59:47.360Z,14.32
2023-02-03T22:03:13.887Z,14.93
2023-02-03T22:05:55.257Z,15.07
2023-02-03T22:08:40.664Z,14.77
2023-02-03T22:14:00.823Z,13.80
2023-02-03T22:16:33.388Z,14.70
2023-02-03T22:19:09.238Z,15.68
2023-02-03T22:22:21.587Z,15.27
2023-02-03T22:24:54.662Z,15.68
2023-02-03T22:27:26.190Z,14.77
2023-02-03T22:29:59.143Z,14.23
2023-02-03T22:32:56.854Z,16.17
2023-02-03T22:35:36.213Z,16.42
2023-02-03T22:38:22.371Z,16.80
2023-02-03T22:41:21.158Z,15.80
2023-02-03T22:44:23.602Z,16.73
2023-02-03T22:47:20.926Z,15.95
2023-02-03T22:54:05.702Z,16.05
2023-02-03T22:57:19.755Z,15.32
2023-02-03T23:06:37.605Z,17.52
2023-02-03T23:09:39.636Z,15.15
2023-02-03T23:12:39.479Z,17.20
2023-02-03T23:15:20.379Z,16.27
2023-02-03T23:18:12.385Z,17.65
2023-02-03T23:21:19.596Z,16.83
2023-02-03T23:24:11.608Z,17.45
2023-02-03T23:26:57.114Z,16.55
2023-02-03T23:29:47.193Z,16.75
2023-02-03T23:33:01.473Z,17.80
2023-02-03T23:35:50.553Z,18.77
2023-02-03T23:41:47.775Z,17.23
2023-02-03T23:44:27.106Z,17.67
2023-02-03T23:47:11.961Z,16.80
2023-02-03T23:49:59.525Z,16.48
2023-02-03T23:52:41.732Z,16.92
2023-02-03T23:55:25.958Z,17.50
2023-02-03T23:58:11.820Z,17.55
